Aérodrome :
LOGIN :

S'inscrire | Disclaimer

   EN    FR    IT 

 










Légende :    VFR   VFR Marginal   IFR   IFR Intensif   IFR Très Intensif
Visi : 
Plafond : 
>= 8 km
>= 3000ft
5 à 8 km
1000 à 3000 ft
1500m à 5 km
500 à 1000 ft
800 à 1500m
200 à 500 ft
< 800m
< 200 ft
Symboles :   Orages  Brouillard  Fortes neiges  Fortes précipitations  Vent > 20 kt
SIGMETs :   Divers  Orages  Givrage  Turbulence  Onde Orograph.  Cendres Volcan.






- Altitude de l'aérodrome : 1300 ft
- Code IATA : LIG


LFBL - Limoges

DERNIER METAR :
  • 190200Z AUTO 22009KT 9999 BKN003 12/11 Q1016 TEMPO 0800 FG VV///

METARs EXPIRÉS :
  • 190130Z AUTO 23006KT 9999 BKN004 BKN015 OVC084 12/11 Q1016 TEMPO 0800 FG VV///
  • 190100Z AUTO 21007KT 9999 BKN004 BKN016 OVC027 12/11 Q1016 TEMPO 0800 FG VV///
  • 190030Z AUTO 20007KT 9999 FEW003 SCT008 BKN013 12/11 Q1016 TEMPO 0800 FG VV///
  • 190000Z AUTO 20003KT 9999 BKN002 BKN014 OVC074 12/12 Q1016 TEMPO 2000 OVC006
  • 182330Z AUTO 21005KT 9999 FEW003 OVC074 12/11 Q1016 TEMPO 2000 OVC002

TAF TAF LFBL
Valide du 19 à 00h jusqu'au 20 à 00h UTC


182300Z 1900/1924 23006KT 9999 SCT006 BKN020 FEW030TCU
BECMG 1900/1902 4000 BR OVC006
PROB40 1901/1906 2000 OVC002
PROB30 1902/1905 0800 FG VV///
TEMPO 1906/1909 SHRA
BECMG 1909/1911 9999 NSW BKN010TCU
BECMG 1912/1914 SCT015TCU SCT030
BECMG 1920/1922 OVC006
BECMG 1922/1924 OVC003
TEMPO 1911/1919 3000 SHRA
ATIS : +33 5 55 48 40 37



MET'MAP, la Météo Aéronautique d'un coup d'oeil ! - Copyright ORBIFLY Décembre 2007 - Disclaimer

ORBIFLY MET'MAP TEAM :

Programmation & Développement : Alexandra Zaïnal
Sur une idée originale de : Baudouin d'Aumeries
Assistance à la programmation : Marc-Olivier Méhu
Soutien technique & logistique : Manuel Goepfert

Contact : metmap@orbifly.com




SOURCES & CREDITS :

   NOAA